Time;durP1;ratioP1;P1;durP2;ratioP2;P2;SDS_P1;SDS_P2;PMS_P1;PMS_P2;Temp;Humidity;BMP_temperature;BMP_pressure;BME280_temperature;BME280_humidity;BME280_pressure;Samples;Min_cycle;Max_cycle;Signal;HPM_P1;HPM_P2
2023/09/27 06:08:05;;;;;;;19.60;17.70;;;13.90;99.90;;;;;;5716936;23;22143;-45
2023/09/27 06:10:31;;;;;;;20.53;18.53;;;13.90;99.90;;;;;;4850467;29;20449;-48
2023/09/27 06:12:57;;;;;;;20.87;18.67;;;14.00;99.90;;;;;;4851218;29;20257;-45
2023/09/27 06:15:22;;;;;;;19.10;17.07;;;14.00;99.90;;;;;;4846095;29;20205;-46
2023/09/27 06:17:48;;;;;;;23.37;17.80;;;14.10;99.90;;;;;;4845855;29;21338;-47
2023/09/27 06:20:21;;;;;;;22.10;19.10;;;14.10;99.90;;;;;;4847033;29;20185;-46
2023/09/27 06:22:48;;;;;;;20.40;18.30;;;14.20;99.90;;;;;;4850774;29;20592;-45
2023/09/27 06:25:15;;;;;;;20.97;18.87;;;14.20;99.90;;;;;;4850353;29;20485;-44
2023/09/27 06:27:41;;;;;;;22.83;19.27;;;14.30;99.90;;;;;;4846424;29;20441;-43
2023/09/27 06:30:21;;;;;;;22.13;19.20;;;14.40;99.90;;;;;;4848894;29;20445;-51
2023/09/27 06:32:54;;;;;;;21.20;19.10;;;14.50;99.90;;;;;;4848051;29;20196;-42
2023/09/27 06:35:20;;;;;;;21.20;19.07;;;14.60;99.90;;;;;;4850791;29;20455;-49
2023/09/27 06:37:49;;;;;;;21.87;19.47;;;14.70;99.90;;;;;;4851243;29;20184;-49
2023/09/27 06:40:19;;;;;;;21.80;19.60;;;14.70;99.90;;;;;;4848539;29;20441;-48
2023/09/27 06:42:49;;;;;;;21.90;19.70;;;14.80;99.90;;;;;;4849207;29;21933;-44
2023/09/27 06:45:15;;;;;;;21.00;18.80;;;14.90;99.90;;;;;;4834046;29;20445;-40
2023/09/27 06:47:41;;;;;;;23.67;19.40;;;15.00;99.90;;;;;;4849668;29;21045;-42
2023/09/27 06:50:11;;;;;;;23.70;19.97;;;15.20;99.90;;;;;;4848983;29;20273;-43
2023/09/27 06:52:39;;;;;;;20.77;18.70;;;15.30;99.90;;;;;;4848625;29;20433;-43
2023/09/27 06:55:13;;;;;;;22.80;20.50;;;15.30;99.90;;;;;;4848773;29;20437;-41
2023/09/27 06:57:44;;;;;;;22.07;19.77;;;15.50;99.90;;;;;;4849472;29;20437;-41
2023/09/27 07:00:18;;;;;;;22.60;20.40;;;15.60;99.90;;;;;;4848387;29;20710;-42
2023/09/27 07:02:53;;;;;;;21.13;19.03;;;15.60;99.90;;;;;;4839314;29;20480;-41
2023/09/27 07:05:21;;;;;;;26.70;20.57;;;15.80;99.90;;;;;;4844872;29;20445;-42
2023/09/27 07:07:48;;;;;;;22.40;20.23;;;15.80;99.90;;;;;;4848834;29;20508;-47
2023/09/27 07:10:13;;;;;;;21.93;19.60;;;15.90;99.90;;;;;;4848438;29;20551;-48
2023/09/27 07:12:40;;;;;;;22.00;18.40;;;16.00;99.90;;;;;;4848141;29;20449;-43
2023/09/27 07:15:10;;;;;;;21.57;19.47;;;16.10;99.90;;;;;;4849872;29;20735;-51
2023/09/27 07:17:37;;;;;;;22.10;19.90;;;16.30;99.90;;;;;;4846751;29;20494;-47
2023/09/27 07:20:09;;;;;;;21.23;17.40;;;16.40;99.90;;;;;;4847571;29;20900;-46
2023/09/27 07:22:36;;;;;;;21.37;19.27;;;16.50;99.90;;;;;;4846959;29;20473;-48
2023/09/27 07:25:03;;;;;;;22.43;20.13;;;16.60;99.90;;;;;;4848005;29;20413;-48
2023/09/27 07:27:29;;;;;;;21.60;19.50;;;16.80;99.90;;;;;;4848309;29;20425;-47
2023/09/27 07:29:54;;;;;;;21.00;18.93;;;16.90;99.90;;;;;;4848299;29;20453;-49
2023/09/27 07:32:20;;;;;;;20.53;18.50;;;17.10;99.90;;;;;;4844243;29;20184;-50
2023/09/27 07:34:45;;;;;;;21.47;19.33;;;17.30;99.90;;;;;;4846965;29;20610;-44
2023/09/27 07:37:11;;;;;;;21.20;19.20;;;17.40;99.90;;;;;;4848490;29;20184;-48
2023/09/27 07:39:37;;;;;;;21.77;19.87;;;17.50;99.90;;;;;;4849763;29;20702;-47
2023/09/27 07:42:03;;;;;;;21.53;19.57;;;17.70;99.90;;;;;;4848185;29;20208;-45
2023/09/27 07:44:32;;;;;;;22.17;20.17;;;17.90;99.90;;;;;;4848123;29;20473;-49
2023/09/27 07:46:58;;;;;;;20.50;18.60;;;18.10;99.90;;;;;;4848270;29;20236;-49
2023/09/27 07:49:23;;;;;;;21.37;19.73;;;18.30;99.90;;;;;;4849261;29;20446;-51
2023/09/27 07:51:49;;;;;;;21.20;19.60;;;18.50;99.90;;;;;;4849496;29;20195;-48
2023/09/27 07:54:15;;;;;;;20.30;18.67;;;18.70;99.90;;;;;;4848894;29;20188;-45
2023/09/27 07:56:41;;;;;;;22.20;19.93;;;18.90;99.90;;;;;;4848221;29;21218;-46
2023/09/27 07:59:07;;;;;;;19.80;18.30;;;19.10;99.90;;;;;;4841950;29;20201;-43
2023/09/27 08:01:33;;;;;;;21.90;20.07;;;19.30;99.90;;;;;;4847663;29;20993;-47
2023/09/27 08:04:06;;;;;;;20.23;18.67;;;19.60;99.90;;;;;;4848536;29;20197;-49
2023/09/27 08:06:33;;;;;;;21.37;19.47;;;19.90;99.90;;;;;;4845641;29;20448;-44
2023/09/27 08:08:59;;;;;;;21.30;19.10;;;20.20;99.90;;;;;;4844645;29;20821;-46
2023/09/27 08:11:25;;;;;;;18.73;17.23;;;20.50;99.90;;;;;;4848178;29;20437;-46
2023/09/27 08:13:50;;;;;;;20.23;18.53;;;20.90;99.90;;;;;;4848476;29;20784;-42
2023/09/27 08:16:17;;;;;;;19.57;18.10;;;21.30;99.90;;;;;;4844107;29;20185;-45
2023/09/27 08:18:42;;;;;;;19.50;18.03;;;21.70;99.90;;;;;;4845786;29;20223;-48
2023/09/27 08:21:09;;;;;;;18.77;17.37;;;22.00;99.90;;;;;;4847886;29;20537;-47
2023/09/27 08:23:34;;;;;;;20.10;18.23;;;22.40;99.90;;;;;;4848130;29;20198;-42
2023/09/27 08:26:00;;;;;;;19.83;18.33;;;22.80;99.90;;;;;;4847356;29;20441;-44
2023/09/27 08:28:32;;;;;;;18.20;16.80;;;23.40;99.90;;;;;;4847541;29;20715;-47
2023/09/27 08:31:00;;;;;;;18.93;17.50;;;23.80;99.90;;;;;;4847695;29;20238;-45
2023/09/27 08:33:26;;;;;;;18.87;17.57;;;24.20;99.90;;;;;;4845762;29;20936;-49
2023/09/27 08:35:53;;;;;;;18.33;17.03;;;24.20;99.90;;;;;;4846456;29;20460;-49
2023/09/27 08:38:18;;;;;;;19.67;18.07;;;24.20;99.90;;;;;;4847587;29;20427;-47
2023/09/27 08:40:47;;;;;;;20.20;18.70;;;24.30;99.90;;;;;;4848364;29;20436;-49
2023/09/27 08:43:14;;;;;;;19.57;18.20;;;24.30;99.90;;;;;;4848175;29;20205;-48
2023/09/27 08:45:40;;;;;;;19.57;17.90;;;24.70;99.90;;;;;;4846406;29;20452;-52
2023/09/27 08:48:11;;;;;;;18.20;17.00;;;24.90;99.90;;;;;;4848558;29;20433;-50
2023/09/27 08:50:37;;;;;;;19.37;18.07;;;25.40;99.90;;;;;;4848663;29;20185;-49
2023/09/27 08:53:03;;;;;;;19.07;17.73;;;25.40;99.90;;;;;;4849264;29;20429;-47
2023/09/27 08:55:29;;;;;;;19.60;18.20;;;25.70;99.50;;;;;;4847944;29;20456;-47
2023/09/27 08:57:56;;;;;;;18.77;17.43;;;26.40;99.20;;;;;;4848472;29;20404;-51
2023/09/27 09:00:25;;;;;;;18.47;17.27;;;26.60;94.40;;;;;;4848916;29;20429;-48
2023/09/27 09:02:57;;;;;;;16.53;15.50;;;27.40;94.00;;;;;;4847643;29;20477;-48
2023/09/27 09:05:24;;;;;;;18.73;17.53;;;28.00;90.70;;;;;;4848213;29;20560;-46
2023/09/27 09:07:50;;;;;;;19.13;17.83;;;28.70;85.20;;;;;;4848697;29;20421;-48
2023/09/27 09:10:17;;;;;;;18.00;16.80;;;29.10;82.10;;;;;;4846700;29;20473;-49
2023/09/27 09:12:44;;;;;;;17.27;16.10;;;29.40;76.90;;;;;;4839983;29;20483;-51
2023/09/27 09:15:15;;;;;;;17.97;16.80;;;29.60;72.20;;;;;;4843089;29;20543;-48
2023/09/27 09:17:47;;;;;;;17.07;15.83;;;29.90;71.60;;;;;;4842891;29;20508;-48
2023/09/27 09:22:50;;;;;;;18.33;17.23;;;29.90;68.20;;;;;;4846383;29;21280;-47
2023/09/27 09:25:15;;;;;;;17.67;16.40;;;30.20;64.80;;;;;;4845747;29;20460;-44
2023/09/27 09:27:41;;;;;;;17.93;16.73;;;30.50;62.10;;;;;;4847276;29;20512;-45
2023/09/27 09:30:11;;;;;;;18.93;17.73;;;30.80;60.40;;;;;;4846390;29;20670;-48
2023/09/27 09:32:50;;;;;;;17.57;16.37;;;30.80;57.70;;;;;;4845784;29;20192;-46
2023/09/27 09:35:31;;;;;;;18.07;17.03;;;30.90;58.10;;;;;;4846240;29;20619;-45
2023/09/27 09:37:58;;;;;;;18.73;17.57;;;31.20;57.40;;;;;;4846998;29;20452;-45
2023/09/27 09:40:24;;;;;;;18.93;17.73;;;31.60;57.40;;;;;;4847854;29;20904;-43
2023/09/27 09:42:50;;;;;;;19.20;17.80;;;32.30;54.10;;;;;;4846761;29;20576;-46
2023/09/27 09:45:16;;;;;;;17.67;16.53;;;32.70;52.90;;;;;;4846379;29;20203;-44
2023/09/27 09:47:44;;;;;;;17.50;16.40;;;32.80;51.40;;;;;;4845267;29;20815;-44
2023/09/27 09:50:18;;;;;;;17.90;16.90;;;32.90;51.00;;;;;;4847495;29;20440;-46
2023/09/27 09:53:05;;;;;;;16.90;15.90;;;32.80;49.60;;;;;;4847574;29;20571;-43
2023/09/27 09:55:31;;;;;;;17.20;16.20;;;33.10;49.70;;;;;;4849357;29;20452;-43
2023/09/27 09:58:27;;;;;;;16.37;15.40;;;33.70;47.50;;;;;;4849966;29;20456;-44
2023/09/27 10:00:54;;;;;;;16.43;15.53;;;34.00;45.60;;;;;;4849057;29;20212;-47
2023/09/27 10:03:21;;;;;;;16.50;15.60;;;34.30;43.20;;;;;;4848778;29;20958;-45
2023/09/27 10:05:50;;;;;;;17.47;16.43;;;34.50;42.00;;;;;;4849726;29;20784;-42
2023/09/27 10:08:19;;;;;;;17.37;16.40;;;34.60;40.70;;;;;;4850504;29;20561;-44
2023/09/27 10:10:45;;;;;;;16.23;15.23;;;34.00;40.40;;;;;;4850863;29;20473;-43
2023/09/27 10:13:12;;;;;;;17.23;16.27;;;34.00;42.20;;;;;;4850276;29;20433;-46
2023/09/27 10:15:38;;;;;;;17.33;16.30;;;34.60;41.10;;;;;;4849596;29;21331;-43
2023/09/27 10:18:22;;;;;;;17.87;16.77;;;34.70;39.70;;;;;;4849949;29;20485;-42
2023/09/27 10:21:03;;;;;;;17.10;16.00;;;34.90;39.70;;;;;;4851526;29;20489;-43
2023/09/27 10:23:47;;;;;;;17.87;16.77;;;35.00;38.40;;;;;;4851125;29;20468;-45
2023/09/27 10:26:27;;;;;;;17.23;16.10;;;35.10;38.10;;;;;;4847528;29;20516;-45
2023/09/27 10:29:10;;;;;;;18.07;16.93;;;35.30;38.00;;;;;;4849093;29;20452;-44
2023/09/27 10:32:00;;;;;;;17.60;16.60;;;35.50;38.60;;;;;;4849160;29;20536;-45
2023/09/27 10:34:26;;;;;;;17.10;16.00;;;36.00;36.80;;;;;;4843287;29;20465;-43
2023/09/27 10:36:55;;;;;;;16.47;15.57;;;36.30;34.30;;;;;;4842971;29;20508;-48
2023/09/27 10:39:21;;;;;;;16.70;15.80;;;36.50;33.90;;;;;;4848828;29;20188;-44
2023/09/27 10:41:50;;;;;;;17.63;16.63;;;36.50;34.10;;;;;;4849544;29;20476;-47
2023/09/27 10:44:33;;;;;;;17.73;16.73;;;36.10;32.70;;;;;;4849175;29;20500;-43
2023/09/27 10:47:01;;;;;;;17.77;16.63;;;36.40;32.30;;;;;;4846970;29;20437;-42
2023/09/27 10:49:47;;;;;;;17.83;16.73;;;36.10;31.30;;;;;;4848755;29;20536;-46
2023/09/27 10:52:18;;;;;;;17.20;15.90;;;35.50;30.80;;;;;;4850398;29;20441;-42
2023/09/27 10:54:45;;;;;;;17.13;15.93;;;35.50;32.30;;;;;;4849376;29;20437;-46
2023/09/27 10:57:12;;;;;;;18.27;17.13;;;35.40;32.90;;;;;;4849306;29;20430;-41
2023/09/27 10:59:39;;;;;;;17.50;16.20;;;35.90;32.20;;;;;;4847695;29;20448;-43
2023/09/27 11:02:06;;;;;;;16.50;15.60;;;36.40;31.30;;;;;;4847601;29;20464;-49
2023/09/27 11:04:33;;;;;;;15.80;15.00;;;36.70;29.80;;;;;;4848279;29;20460;-48
2023/09/27 11:06:59;;;;;;;16.37;15.57;;;36.90;28.20;;;;;;4846419;29;20441;-43
2023/09/27 11:09:26;;;;;;;16.60;15.60;;;37.30;28.20;;;;;;4848310;29;21053;-41
2023/09/27 11:11:54;;;;;;;17.03;16.00;;;37.30;26.50;;;;;;4848673;29;20188;-42
2023/09/27 11:14:33;;;;;;;16.33;15.43;;;37.40;26.80;;;;;;4847448;29;20460;-45
2023/09/27 11:17:22;;;;;;;15.90;15.10;;;37.70;26.70;;;;;;4844086;29;20457;-42
2023/09/27 11:19:49;;;;;;;17.27;16.17;;;38.30;26.30;;;;;;4847823;29;20504;-45
2023/09/27 11:22:28;;;;;;;16.90;15.90;;;38.30;24.80;;;;;;4849160;29;21532;-41
2023/09/27 11:24:54;;;;;;;16.13;15.23;;;38.10;24.20;;;;;;4848117;29;20488;-46
2023/09/27 11:27:20;;;;;;;16.63;15.70;;;38.10;24.10;;;;;;4848924;29;20544;-46
2023/09/27 11:29:53;;;;;;;15.60;14.70;;;37.70;24.10;;;;;;4849713;29;20276;-45
2023/09/27 11:32:23;;;;;;;15.90;15.00;;;37.10;24.90;;;;;;4849892;29;20541;-45
2023/09/27 11:34:55;;;;;;;15.43;14.53;;;37.40;24.20;;;;;;4849156;29;20453;-45
2023/09/27 11:37:23;;;;;;;15.63;14.83;;;37.30;24.20;;;;;;4849209;29;20456;-44
2023/09/27 11:39:50;;;;;;;15.73;14.83;;;36.80;24.00;;;;;;4848984;29;20553;-43
2023/09/27 11:42:20;;;;;;;16.07;15.17;;;36.20;24.30;;;;;;4847837;29;20449;-44
2023/09/27 11:44:59;;;;;;;16.23;15.17;;;36.90;25.20;;;;;;4849775;29;20441;-41
2023/09/27 11:47:25;;;;;;;16.07;15.13;;;36.90;24.10;;;;;;4848196;29;20445;-42
2023/09/27 11:49:51;;;;;;;16.23;15.33;;;37.40;23.30;;;;;;4847817;29;22344;-44
2023/09/27 11:52:17;;;;;;;14.70;13.90;;;37.70;22.40;;;;;;4847946;29;20284;-43
2023/09/27 11:54:45;;;;;;;16.10;15.10;;;37.60;21.80;;;;;;4846134;29;20219;-43
2023/09/27 11:57:10;;;;;;;15.80;15.00;;;37.70;22.90;;;;;;4848730;29;20529;-44
2023/09/27 11:59:39;;;;;;;16.40;15.50;;;37.80;22.80;;;;;;4847673;29;20457;-43
2023/09/27 12:02:05;;;;;;;15.27;14.47;;;38.00;22.70;;;;;;4846075;29;20220;-42
2023/09/27 12:04:33;;;;;;;16.53;15.43;;;38.20;22.00;;;;;;4844902;29;20456;-47
2023/09/27 12:06:58;;;;;;;17.00;16.00;;;38.10;22.30;;;;;;4847127;29;20449;-44
2023/09/27 12:09:24;;;;;;;17.07;16.00;;;38.30;22.70;;;;;;4848618;29;20829;-43
2023/09/27 12:11:49;;;;;;;16.13;15.23;;;37.90;22.50;;;;;;4845942;29;20255;-43
2023/09/27 12:14:15;;;;;;;15.77;14.93;;;38.00;23.20;;;;;;4848281;29;21051;-43
2023/09/27 12:16:41;;;;;;;16.47;15.57;;;38.30;23.10;;;;;;4847595;29;20567;-42
2023/09/27 12:19:07;;;;;;;16.70;15.80;;;38.10;22.30;;;;;;4845626;29;20196;-44
2023/09/27 12:21:35;;;;;;;16.90;15.80;;;38.30;22.90;;;;;;4848879;29;20297;-43
2023/09/27 12:24:02;;;;;;;16.80;15.90;;;37.80;21.50;;;;;;4847172;29;20861;-41
2023/09/27 12:26:29;;;;;;;17.23;16.03;;;38.10;22.40;;;;;;4848087;29;20480;-46
2023/09/27 12:28:55;;;;;;;15.23;14.33;;;38.20;22.50;;;;;;4847653;29;20433;-42
2023/09/27 12:31:21;;;;;;;14.80;13.90;;;38.30;20.60;;;;;;4847462;29;20533;-46
2023/09/27 12:33:47;;;;;;;15.77;14.77;;;38.00;19.70;;;;;;4846284;29;20540;-44
2023/09/27 12:36:13;;;;;;;16.30;15.30;;;37.10;20.30;;;;;;4846275;29;20455;-44
2023/09/27 12:38:39;;;;;;;16.10;15.30;;;36.20;20.50;;;;;;4848194;29;20550;-43
2023/09/27 12:41:07;;;;;;;16.70;15.60;;;36.20;21.60;;;;;;4848058;29;20272;-43
2023/09/27 12:43:33;;;;;;;16.63;15.43;;;35.40;23.50;;;;;;4848245;29;20453;-44
2023/09/27 12:46:01;;;;;;;15.97;14.97;;;35.60;23.70;;;;;;4847773;29;20809;-43
2023/09/27 12:48:27;;;;;;;15.87;14.90;;;35.50;21.90;;;;;;4848070;29;20525;-41
2023/09/27 12:50:52;;;;;;;16.30;15.40;;;35.60;22.30;;;;;;4846941;29;20536;-43
2023/09/27 12:53:18;;;;;;;16.37;15.40;;;35.80;22.50;;;;;;4846149;29;20220;-47
2023/09/27 12:55:44;;;;;;;17.03;16.00;;;36.00;22.50;;;;;;4847595;29;20687;-44
2023/09/27 12:58:11;;;;;;;16.77;15.60;;;35.80;22.60;;;;;;4847976;29;20192;-42
2023/09/27 13:00:38;;;;;;;16.90;15.80;;;35.80;22.70;;;;;;4847634;29;20275;-41
2023/09/27 13:03:04;;;;;;;16.20;15.20;;;35.90;23.00;;;;;;4846970;29;20457;-42
2023/09/27 13:05:30;;;;;;;16.27;15.30;;;36.20;22.80;;;;;;4841337;29;20786;-47
2023/09/27 13:07:55;;;;;;;16.53;15.60;;;36.30;22.60;;;;;;4844742;29;20441;-45
2023/09/27 13:10:21;;;;;;;16.00;15.00;;;36.20;21.90;;;;;;4847327;29;20231;-40
2023/09/27 13:12:47;;;;;;;16.93;15.93;;;35.70;22.70;;;;;;4846317;29;20293;-42
2023/09/27 13:15:12;;;;;;;15.93;15.03;;;35.80;22.70;;;;;;4846658;29;20181;-41
2023/09/27 13:17:38;;;;;;;15.40;14.50;;;36.30;22.30;;;;;;4846943;29;20460;-43
2023/09/27 13:20:09;;;;;;;16.90;15.90;;;36.20;21.60;;;;;;4847836;29;20196;-41
2023/09/27 13:22:35;;;;;;;16.70;15.70;;;35.90;22.30;;;;;;4846846;29;20192;-45
2023/09/27 13:25:01;;;;;;;17.53;16.13;;;35.80;22.70;;;;;;4846687;29;20456;-45
2023/09/27 13:27:26;;;;;;;15.87;14.97;;;35.80;22.30;;;;;;4848047;29;20196;-41
2023/09/27 13:29:52;;;;;;;16.63;15.60;;;35.30;22.60;;;;;;4846403;29;20231;-45
2023/09/27 13:32:18;;;;;;;16.47;15.57;;;35.20;22.90;;;;;;4847174;29;20212;-44
2023/09/27 13:34:45;;;;;;;16.30;15.17;;;35.40;23.10;;;;;;4844903;29;20199;-43
2023/09/27 13:37:10;;;;;;;16.63;15.67;;;35.50;22.40;;;;;;4845541;29;20181;-42
2023/09/27 13:39:36;;;;;;;16.60;15.70;;;35.80;22.10;;;;;;4847868;29;20433;-44
2023/09/27 13:42:01;;;;;;;15.90;14.90;;;35.60;22.40;;;;;;4847660;29;20196;-41
2023/09/27 13:44:27;;;;;;;16.87;15.97;;;35.80;22.20;;;;;;4844182;29;20197;-43
2023/09/27 13:46:53;;;;;;;17.50;16.40;;;36.00;21.70;;;;;;4839868;29;20196;-46
2023/09/27 13:49:18;;;;;;;16.80;15.77;;;35.90;22.00;;;;;;4842737;29;21036;-41
2023/09/27 13:51:44;;;;;;;16.53;15.53;;;36.00;22.20;;;;;;4847031;29;20220;-43
2023/09/27 13:54:11;;;;;;;16.17;15.13;;;35.90;21.90;;;;;;4846660;29;20666;-43
2023/09/27 13:56:37;;;;;;;16.50;15.50;;;36.10;22.10;;;;;;4847261;29;20196;-45
2023/09/27 13:59:04;;;;;;;17.10;16.00;;;36.20;21.80;;;;;;4846786;29;20441;-44
2023/09/27 14:01:30;;;;;;;16.20;15.27;;;35.80;21.50;;;;;;4846946;29;20196;-44
2023/09/27 14:03:58;;;;;;;16.07;15.17;;;35.50;22.50;;;;;;4847304;29;20457;-44
2023/09/27 14:06:24;;;;;;;15.87;14.97;;;35.60;22.00;;;;;;4846996;29;20452;-43
2023/09/27 14:08:51;;;;;;;16.57;15.67;;;35.90;22.10;;;;;;4847325;29;20832;-42
2023/09/27 14:11:17;;;;;;;15.97;15.07;;;35.90;21.10;;;;;;4847317;29;20482;-45
2023/09/27 14:13:44;;;;;;;15.70;14.87;;;36.10;21.20;;;;;;4847012;29;20807;-42
2023/09/27 14:16:10;;;;;;;16.40;15.40;;;36.00;21.00;;;;;;4847185;29;20464;-41
2023/09/27 14:18:36;;;;;;;16.03;14.80;;;34.90;21.00;;;;;;4847115;29;20460;-42
2023/09/27 14:21:03;;;;;;;15.10;14.30;;;34.90;21.80;;;;;;4847179;29;20440;-45
2023/09/27 14:23:29;;;;;;;16.10;15.10;;;34.50;21.80;;;;;;4847121;29;20445;-42
2023/09/27 14:25:54;;;;;;;16.17;15.20;;;34.50;22.40;;;;;;4846087;29;20911;-44
2023/09/27 14:28:20;;;;;;;16.20;15.23;;;34.60;22.60;;;;;;4847061;29;20607;-42
2023/09/27 14:30:45;;;;;;;16.90;15.90;;;34.80;22.40;;;;;;4847521;29;20275;-43
2023/09/27 14:33:11;;;;;;;16.40;15.43;;;34.70;22.40;;;;;;4847233;29;20223;-44
2023/09/27 14:35:39;;;;;;;16.33;15.43;;;34.70;22.70;;;;;;4843604;29;20552;-42
2023/09/27 14:38:06;;;;;;;17.13;16.03;;;34.10;23.00;;;;;;4846732;29;20236;-43
2023/09/27 14:40:32;;;;;;;16.97;15.87;;;33.80;24.00;;;;;;4846861;29;20547;-45
2023/09/27 14:42:58;;;;;;;15.17;14.17;;;33.60;23.60;;;;;;4850174;29;20544;-44
2023/09/27 14:45:24;;;;;;;15.30;14.27;;;33.10;24.00;;;;;;4849671;29;20899;-42
2023/09/27 14:47:51;;;;;;;16.90;15.90;;;33.00;24.20;;;;;;4849179;29;20443;-41
2023/09/27 14:50:16;;;;;;;17.10;16.00;;;32.70;23.70;;;;;;4850087;29;20429;-41
2023/09/27 14:52:42;;;;;;;16.10;15.10;;;32.30;24.10;;;;;;4849780;29;20465;-41
2023/09/27 14:55:08;;;;;;;15.20;14.37;;;32.20;24.40;;;;;;4849672;29;20210;-41
2023/09/27 14:57:34;;;;;;;15.60;14.57;;;32.40;24.30;;;;;;4849935;29;20197;-41
2023/09/27 15:00:00;;;;;;;15.00;14.00;;;32.20;24.30;;;;;;4850260;29;20226;-43
2023/09/27 15:02:26;;;;;;;15.30;14.43;;;32.20;24.50;;;;;;4849521;29;21095;-42
2023/09/27 15:04:51;;;;;;;15.77;14.87;;;31.90;24.60;;;;;;4849558;29;20452;-42
2023/09/27 15:07:19;;;;;;;15.40;14.50;;;31.50;24.50;;;;;;4849877;29;20652;-43
2023/09/27 15:09:46;;;;;;;16.33;15.13;;;31.30;25.20;;;;;;4849820;29;20292;-42
2023/09/27 15:12:11;;;;;;;15.37;14.43;;;30.90;25.40;;;;;;4850375;29;20909;-46
2023/09/27 15:14:37;;;;;;;15.87;14.87;;;30.90;25.80;;;;;;4849103;29;20433;-43
2023/09/27 15:17:03;;;;;;;15.27;14.40;;;30.30;25.80;;;;;;4849255;29;20225;-43
2023/09/27 15:19:29;;;;;;;15.93;14.93;;;30.00;26.60;;;;;;4849896;29;20196;-43
2023/09/27 15:21:54;;;;;;;15.77;14.87;;;29.70;27.20;;;;;;4849669;29;20205;-43
2023/09/27 15:24:22;;;;;;;16.57;15.67;;;29.60;27.70;;;;;;4849366;29;20203;-41
2023/09/27 15:26:47;;;;;;;15.70;14.60;;;29.40;28.10;;;;;;4847942;29;20196;-41
2023/09/27 15:29:13;;;;;;;15.27;14.40;;;29.20;28.60;;;;;;4849105;29;20460;-42
2023/09/27 15:31:39;;;;;;;15.53;14.50;;;29.00;29.30;;;;;;4849293;29;20211;-41
2023/09/27 15:34:05;;;;;;;15.70;14.80;;;28.70;29.80;;;;;;4848508;29;20220;-40
2023/09/27 15:36:31;;;;;;;15.60;14.70;;;28.70;30.20;;;;;;4848298;29;20196;-41
2023/09/27 15:38:57;;;;;;;16.63;15.60;;;28.60;30.50;;;;;;4849450;29;20923;-45
2023/09/27 15:41:22;;;;;;;15.90;14.90;;;28.30;30.50;;;;;;4848210;29;20199;-41
2023/09/27 15:43:49;;;;;;;16.33;15.13;;;28.20;31.20;;;;;;4848853;29;20445;-44
2023/09/27 15:46:16;;;;;;;16.10;15.00;;;27.90;31.10;;;;;;4846652;29;20201;-42
2023/09/27 15:48:43;;;;;;;15.80;14.80;;;27.80;31.60;;;;;;4840352;29;20559;-45
2023/09/27 15:51:10;;;;;;;15.43;14.63;;;27.60;32.20;;;;;;4847642;29;20811;-43
2023/09/27 15:53:37;;;;;;;16.40;15.40;;;27.50;32.70;;;;;;4846751;29;20956;-44
2023/09/27 15:56:04;;;;;;;16.83;15.70;;;27.30;33.20;;;;;;4847330;29;20483;-45
2023/09/27 15:58:31;;;;;;;16.87;15.80;;;27.10;33.50;;;;;;4847716;29;20449;-42
2023/09/27 16:00:59;;;;;;;17.40;16.30;;;27.00;34.00;;;;;;4844971;29;20441;-47
2023/09/27 16:03:25;;;;;;;16.20;15.20;;;26.80;34.50;;;;;;4848622;29;20441;-41
2023/09/27 16:05:52;;;;;;;16.47;15.40;;;26.70;34.90;;;;;;4846759;29;20460;-41
2023/09/27 16:08:23;;;;;;;16.27;15.13;;;26.60;35.40;;;;;;4847768;29;20488;-43
2023/09/27 16:10:49;;;;;;;16.93;15.83;;;26.50;36.00;;;;;;4847502;29;20457;-41
2023/09/27 16:13:16;;;;;;;17.10;15.80;;;26.30;36.30;;;;;;4848014;29;20567;-42
2023/09/27 16:15:46;;;;;;;18.20;16.80;;;26.20;37.00;;;;;;4847711;29;20540;-47
2023/09/27 16:18:13;;;;;;;16.67;15.67;;;26.10;37.90;;;;;;4848781;29;20553;-42
2023/09/27 16:20:39;;;;;;;17.17;16.07;;;25.90;38.50;;;;;;4845230;29;20475;-43
2023/09/27 16:23:05;;;;;;;17.10;16.00;;;25.80;38.90;;;;;;4840878;29;20874;-42
2023/09/27 16:25:31;;;;;;;15.80;14.77;;;25.70;39.60;;;;;;4841118;29;20461;-46
2023/09/27 16:27:57;;;;;;;17.47;16.37;;;25.60;40.70;;;;;;4847729;29;20192;-44
2023/09/27 16:30:24;;;;;;;17.03;16.03;;;25.40;41.50;;;;;;4846176;29;20650;-43
2023/09/27 16:32:50;;;;;;;16.50;15.50;;;25.30;41.90;;;;;;4848393;29;20576;-47
2023/09/27 16:35:16;;;;;;;16.60;15.60;;;25.20;42.50;;;;;;4846998;29;20907;-46
2023/09/27 16:37:42;;;;;;;18.00;16.80;;;25.10;43.20;;;;;;4847288;29;20540;-43
2023/09/27 16:40:08;;;;;;;16.83;15.43;;;24.90;44.00;;;;;;4848201;29;20188;-43
2023/09/27 16:42:33;;;;;;;16.57;15.50;;;24.70;99.90;;;;;;4848391;29;20200;-45
2023/09/27 16:45:00;;;;;;;18.50;17.20;;;24.60;99.90;;;;;;4847762;29;20433;-46
2023/09/27 16:47:26;;;;;;;17.03;15.60;;;24.40;99.90;;;;;;4847139;29;20204;-44
2023/09/27 16:49:52;;;;;;;17.23;16.17;;;24.30;99.90;;;;;;4847420;29;20481;-49
2023/09/27 16:52:17;;;;;;;18.03;16.87;;;24.10;99.90;;;;;;4847700;29;20311;-42
2023/09/27 16:54:44;;;;;;;18.17;16.97;;;24.00;1.00;;;;;;4847733;29;20231;-44
2023/09/27 16:57:09;;;;;;;18.83;17.50;;;23.80;1.00;;;;;;4846998;29;20200;-44
2023/09/27 16:59:35;;;;;;;19.00;17.53;;;23.60;1.00;;;;;;4846720;29;20900;-41
2023/09/27 17:02:02;;;;;;;19.10;17.33;;;23.40;1.00;;;;;;4847132;29;20193;-44
2023/09/27 17:04:28;;;;;;;18.00;16.80;;;23.30;1.00;;;;;;4846958;29;20449;-45
2023/09/27 17:06:54;;;;;;;18.20;16.90;;;23.10;1.00;;;;;;4847040;29;20449;-46
2023/09/27 17:09:20;;;;;;;17.57;16.10;;;23.00;1.00;;;;;;4846843;29;20483;-43
2023/09/27 17:11:45;;;;;;;17.10;15.93;;;22.80;1.00;;;;;;4835313;29;20239;-43
2023/09/27 17:14:11;;;;;;;18.93;17.63;;;22.70;1.00;;;;;;4843949;29;20192;-42
2023/09/27 17:16:36;;;;;;;18.20;16.93;;;22.50;1.00;;;;;;4843192;29;20606;-41
2023/09/27 17:19:02;;;;;;;18.67;17.20;;;22.40;1.00;;;;;;4845630;29;20671;-41
2023/09/27 17:21:28;;;;;;;17.43;16.13;;;22.30;1.00;;;;;;4845940;29;20553;-44
2023/09/27 17:23:54;;;;;;;19.83;18.43;;;22.10;1.00;;;;;;4845216;29;20275;-43
2023/09/27 17:26:20;;;;;;;18.93;17.63;;;22.00;1.00;;;;;;4845591;29;20356;-42
2023/09/27 17:28:46;;;;;;;18.67;17.30;;;22.00;1.00;;;;;;4847114;29;20664;-42
2023/09/27 17:31:11;;;;;;;18.53;17.20;;;21.80;1.00;;;;;;4845816;29;20196;-41
2023/09/27 17:33:37;;;;;;;21.00;19.13;;;21.70;1.00;;;;;;4847013;29;20228;-43
2023/09/27 17:36:04;;;;;;;20.30;18.80;;;21.60;1.00;;;;;;4842693;29;20351;-42
2023/09/27 17:38:30;;;;;;;18.00;16.80;;;21.50;1.00;;;;;;4845778;29;20201;-42
2023/09/27 17:40:56;;;;;;;18.60;17.40;;;21.40;51.40;;;;;;4843889;29;20979;-42
2023/09/27 17:43:23;;;;;;;20.00;18.50;;;21.30;94.10;;;;;;4844489;29;20682;-44
2023/09/27 17:45:51;;;;;;;21.07;19.57;;;21.10;99.90;;;;;;4835727;29;20461;-42
2023/09/27 17:48:20;;;;;;;19.17;17.67;;;21.10;99.90;;;;;;4843257;29;20458;-42
2023/09/27 17:50:46;;;;;;;20.67;17.27;;;20.90;99.90;;;;;;4845728;29;20448;-41
2023/09/27 17:53:12;;;;;;;18.90;17.40;;;20.80;95.70;;;;;;4846305;29;20485;-44
2023/09/27 17:55:38;;;;;;;19.90;18.40;;;20.80;99.90;;;;;;4845296;29;21015;-43
2023/09/27 17:58:06;;;;;;;19.37;17.93;;;20.80;99.90;;;;;;4841010;29;21224;-45
2023/09/27 18:00:32;;;;;;;18.30;16.77;;;20.60;99.90;;;;;;4843495;29;20200;-42
2023/09/27 18:02:58;;;;;;;19.10;17.60;;;20.50;99.90;;;;;;4842986;29;20449;-42
2023/09/27 18:05:23;;;;;;;18.60;17.00;;;20.40;99.90;;;;;;4843559;29;20205;-43
2023/09/27 18:07:49;;;;;;;20.00;18.60;;;20.30;99.90;;;;;;4846066;29;20558;-45
2023/09/27 18:10:15;;;;;;;19.97;18.57;;;20.20;99.90;;;;;;4844710;29;20250;-43
2023/09/27 18:12:40;;;;;;;18.37;16.97;;;20.20;99.90;;;;;;4846245;29;20225;-44
2023/09/27 18:15:07;;;;;;;20.13;18.50;;;20.10;99.90;;;;;;4845527;29;20304;-43
2023/09/27 18:17:33;;;;;;;21.00;19.43;;;20.00;99.90;;;;;;4845792;29;20227;-45
2023/09/27 18:20:00;;;;;;;21.60;19.80;;;19.90;99.90;;;;;;4849105;29;21129;-48
2023/09/27 18:22:26;;;;;;;21.30;19.67;;;19.80;1.00;;;;;;4848886;29;20916;-43
2023/09/27 18:24:51;;;;;;;21.13;19.53;;;19.80;1.00;;;;;;4850367;29;20488;-42
2023/09/27 18:27:17;;;;;;;19.23;17.77;;;19.70;1.00;;;;;;4847984;29;20437;-43
2023/09/27 18:29:44;;;;;;;20.10;18.60;;;19.60;1.00;;;;;;4849771;29;20196;-43
2023/09/27 18:32:09;;;;;;;19.37;17.93;;;19.50;1.00;;;;;;4848366;29;20330;-41
2023/09/27 18:34:35;;;;;;;21.10;19.40;;;19.50;1.00;;;;;;4849086;29;21144;-43
2023/09/27 18:37:01;;;;;;;18.90;17.47;;;19.40;1.00;;;;;;4849082;29;20192;-43
2023/09/27 18:39:26;;;;;;;21.33;19.63;;;19.30;1.00;;;;;;4849351;29;20209;-42